createdAt,value
2022-10-10T00:01:54.727Z,3.97
2022-10-10T00:03:56.557Z,4.00
2022-10-10T00:05:58.163Z,4.28
2022-10-10T00:08:00.067Z,4.20
2022-10-10T00:10:01.816Z,4.25
2022-10-10T00:12:03.701Z,3.75
2022-10-10T00:14:07.880Z,4.30
2022-10-10T00:16:10.618Z,4.15
2022-10-10T00:18:12.290Z,3.85
2022-10-10T00:20:16.298Z,4.40
2022-10-10T00:22:17.976Z,4.13
2022-10-10T00:24:19.883Z,3.17
2022-10-10T00:26:21.713Z,3.22
2022-10-10T00:28:23.562Z,3.80
2022-10-10T00:30:25.225Z,3.65
2022-10-10T00:32:27.287Z,3.53
2022-10-10T00:34:28.950Z,3.65
2022-10-10T00:36:30.623Z,3.63
2022-10-10T00:38:32.680Z,3.08
2022-10-10T00:40:34.788Z,5.60
2022-10-10T00:42:36.501Z,3.75
2022-10-10T00:44:40.221Z,3.85
2022-10-10T00:46:42.488Z,3.22
2022-10-10T00:48:45.089Z,3.78
2022-10-10T00:50:54.453Z,3.55
2022-10-10T00:52:56.747Z,3.88
2022-10-10T00:54:58.399Z,4.85
2022-10-10T00:57:12.548Z,3.83
2022-10-10T00:59:14.271Z,4.32
2022-10-10T01:01:16.380Z,4.40
2022-10-10T01:03:18.148Z,4.18
2022-10-10T01:05:19.920Z,4.68
2022-10-10T01:07:26.591Z,4.55
2022-10-10T01:09:28.875Z,4.55
2022-10-10T01:11:42.615Z,5.18
2022-10-10T01:13:47.027Z,4.45
2022-10-10T01:16:06.686Z,4.38
2022-10-10T01:18:24.601Z,4.15
2022-10-10T01:20:38.389Z,4.30
2022-10-10T01:22:56.741Z,5.03
2022-10-10T01:25:21.631Z,4.05
2022-10-10T01:27:31.016Z,3.58
2022-10-10T01:29:43.472Z,4.45
2022-10-10T01:31:47.515Z,3.95
2022-10-10T01:34:06.679Z,3.13
2022-10-10T01:36:21.177Z,3.58
2022-10-10T01:38:52.482Z,3.78
2022-10-10T01:40:56.084Z,3.83
2022-10-10T01:43:03.656Z,3.63
2022-10-10T01:45:05.882Z,3.78
2022-10-10T01:47:10.669Z,3.33
2022-10-10T01:49:12.392Z,3.40
2022-10-10T01:51:53.048Z,3.92
2022-10-10T01:54:03.961Z,3.08
2022-10-10T01:56:13.055Z,3.30
2022-10-10T01:58:32.938Z,3.47
2022-10-10T02:00:51.342Z,3.17
2022-10-10T02:02:57.636Z,3.55
2022-10-10T02:05:12.615Z,3.80
2022-10-10T02:07:33.580Z,3.50
2022-10-10T02:09:38.678Z,3.38
2022-10-10T02:11:41.037Z,3.45
2022-10-10T02:13:49.568Z,4.00
2022-10-10T02:15:53.464Z,3.47
2022-10-10T02:17:56.499Z,3.15
2022-10-10T02:19:59.418Z,3.58
2022-10-10T02:22:01.827Z,3.53
2022-10-10T02:24:06.053Z,3.85
2022-10-10T02:26:08.322Z,3.78
2022-10-10T02:28:16.074Z,3.63
2022-10-10T02:30:18.439Z,3.75
2022-10-10T02:32:33.186Z,4.07
2022-10-10T02:34:37.819Z,3.95
2022-10-10T02:36:41.111Z,3.88
2022-10-10T02:38:43.431Z,2.78
2022-10-10T02:40:45.977Z,2.92
2022-10-10T02:42:48.125Z,3.30
2022-10-10T02:44:50.618Z,3.90
2022-10-10T02:46:52.496Z,2.90
2022-10-10T02:48:54.136Z,3.45
2022-10-10T02:50:56.468Z,3.50
2022-10-10T02:52:59.127Z,4.03
2022-10-10T02:55:00.938Z,3.83
2022-10-10T02:57:02.707Z,3.88
2022-10-10T02:59:04.340Z,3.08
2022-10-10T03:01:06.344Z,3.33
2022-10-10T03:03:08.028Z,2.90
2022-10-10T03:05:10.259Z,3.03
2022-10-10T03:07:12.037Z,2.92
2022-10-10T03:09:13.828Z,4.32
2022-10-10T03:11:15.497Z,3.35
2022-10-10T03:13:18.536Z,3.42
2022-10-10T03:15:20.163Z,3.22
2022-10-10T03:17:21.810Z,4.10
2022-10-10T03:19:23.556Z,3.08
2022-10-10T03:21:25.131Z,3.47
2022-10-10T03:23:26.741Z,3.85
2022-10-10T03:25:28.552Z,3.58
2022-10-10T03:27:30.354Z,3.13
2022-10-10T03:29:32.019Z,2.63
2022-10-10T03:31:33.675Z,3.20
2022-10-10T03:33:35.549Z,3.30
2022-10-10T03:35:37.554Z,2.85
2022-10-10T03:37:39.223Z,3.45
2022-10-10T03:39:40.822Z,2.95
2022-10-10T03:41:42.477Z,3.15
2022-10-10T03:43:44.229Z,3.08
2022-10-10T03:45:47.716Z,3.13
2022-10-10T03:47:49.594Z,3.05
2022-10-10T03:49:51.193Z,3.08
2022-10-10T03:51:53.755Z,2.80
2022-10-10T03:53:55.689Z,3.38
2022-10-10T03:55:57.698Z,2.88
2022-10-10T03:57:59.508Z,4.60
2022-10-10T04:00:01.355Z,3.10
2022-10-10T04:02:03.304Z,2.95
2022-10-10T04:04:05.496Z,3.30
2022-10-10T04:06:07.510Z,3.60
2022-10-10T04:08:09.949Z,3.47
2022-10-10T04:10:11.618Z,3.40
2022-10-10T04:12:13.234Z,2.65
2022-10-10T04:14:14.819Z,2.75
2022-10-10T04:16:16.401Z,4.22
2022-10-10T04:18:18.785Z,3.40
2022-10-10T04:20:20.510Z,3.60
2022-10-10T04:22:22.404Z,3.05
2022-10-10T04:24:24.294Z,3.67
2022-10-10T04:26:26.356Z,3.33
2022-10-10T04:28:28.489Z,3.40
2022-10-10T04:30:34.610Z,3.17
2022-10-10T04:32:36.929Z,3.10
2022-10-10T04:34:38.604Z,2.28
2022-10-10T04:36:40.230Z,3.10
2022-10-10T04:38:41.953Z,3.30
2022-10-10T04:40:43.788Z,3.78
2022-10-10T04:42:45.456Z,7.70
2022-10-10T04:44:47.198Z,6.70
2022-10-10T04:46:48.839Z,4.50
2022-10-10T04:48:50.592Z,4.97
2022-10-10T04:50:53.878Z,5.53
2022-10-10T04:52:55.479Z,4.88
2022-10-10T04:54:57.284Z,5.97
2022-10-10T04:56:58.988Z,5.57
2022-10-10T04:59:00.842Z,4.82
2022-10-10T05:01:02.496Z,3.75
2022-10-10T05:03:04.454Z,3.83
2022-10-10T05:05:07.105Z,3.35
2022-10-10T05:07:09.103Z,4.15
2022-10-10T05:09:10.861Z,3.83
2022-10-10T05:11:12.468Z,3.92
2022-10-10T05:13:15.793Z,3.80
2022-10-10T05:15:17.936Z,3.20
2022-10-10T05:17:19.808Z,3.72
2022-10-10T05:19:21.702Z,3.28
2022-10-10T05:21:23.914Z,2.80
2022-10-10T05:23:25.714Z,3.30
2022-10-10T05:25:27.554Z,3.22
2022-10-10T05:27:29.980Z,3.35
2022-10-10T05:29:31.835Z,3.28
2022-10-10T05:31:34.914Z,3.78
2022-10-10T05:33:36.700Z,3.83
2022-10-10T05:35:38.294Z,3.92
2022-10-10T05:37:40.078Z,4.50
2022-10-10T05:39:41.801Z,3.85
2022-10-10T05:41:43.747Z,4.15
2022-10-10T05:43:45.662Z,3.80
2022-10-10T05:45:47.314Z,3.17
2022-10-10T05:47:48.982Z,4.25
2022-10-10T05:49:50.793Z,3.90
2022-10-10T05:51:52.512Z,3.97
2022-10-10T05:53:54.229Z,4.38
2022-10-10T05:55:55.919Z,4.25
2022-10-10T05:57:57.785Z,4.22
2022-10-10T06:00:02.859Z,4.55
2022-10-10T06:02:04.733Z,5.65
2022-10-10T06:04:07.359Z,7.85
2022-10-10T06:06:09.465Z,8.98
2022-10-10T06:08:12.705Z,8.25
2022-10-10T06:10:18.293Z,8.05
2022-10-10T06:12:20.475Z,7.60
2022-10-10T06:14:23.023Z,5.93
2022-10-10T06:16:28.816Z,5.50
2022-10-10T06:18:33.920Z,5.95
2022-10-10T06:20:40.168Z,4.53
2022-10-10T06:22:42.045Z,4.95
2022-10-10T06:24:43.705Z,15.45
2022-10-10T06:26:45.685Z,11.65
2022-10-10T06:28:47.670Z,15.20
2022-10-10T06:30:50.654Z,20.98
2022-10-10T06:32:56.471Z,21.83
2022-10-10T06:34:58.808Z,17.92
2022-10-10T06:37:00.560Z,12.68
2022-10-10T06:39:02.332Z,12.18
2022-10-10T06:41:04.773Z,9.23
2022-10-10T06:43:11.574Z,8.15
2022-10-10T06:45:13.389Z,7.15
2022-10-10T06:47:15.154Z,6.93
2022-10-10T06:49:18.511Z,7.38
2022-10-10T06:51:20.205Z,6.88
2022-10-10T06:53:21.961Z,7.20
2022-10-10T06:55:23.604Z,5.38
2022-10-10T06:57:25.464Z,5.43
2022-10-10T06:59:27.103Z,4.85
2022-10-10T07:01:28.707Z,4.93
2022-10-10T07:03:31.221Z,6.10
2022-10-10T07:05:32.924Z,5.20
2022-10-10T07:07:35.353Z,5.53
2022-10-10T07:09:37.042Z,4.85
2022-10-10T07:11:39.751Z,5.63
2022-10-10T07:13:41.526Z,4.07
2022-10-10T07:15:44.668Z,5.03
2022-10-10T07:17:49.338Z,3.92
2022-10-10T07:19:55.551Z,3.95
2022-10-10T07:21:57.237Z,5.47
2022-10-10T07:23:58.944Z,4.63
2022-10-10T07:26:02.677Z,4.97
2022-10-10T07:28:04.578Z,5.70
2022-10-10T07:30:06.730Z,5.93
2022-10-10T07:32:08.692Z,4.50
2022-10-10T07:34:10.413Z,3.85
2022-10-10T07:36:12.415Z,5.00
2022-10-10T07:38:14.972Z,4.60
2022-10-10T07:40:16.636Z,3.45
2022-10-10T07:42:19.989Z,4.07
2022-10-10T07:44:24.382Z,3.90
2022-10-10T07:46:26.464Z,4.35
2022-10-10T07:48:28.378Z,4.28
2022-10-10T07:50:30.602Z,3.55
2022-10-10T07:52:32.512Z,3.72
2022-10-10T07:54:34.269Z,4.38
2022-10-10T07:56:36.161Z,5.28
2022-10-10T07:58:38.470Z,3.65
2022-10-10T08:00:43.736Z,3.45
2022-10-10T08:02:45.412Z,4.20
2022-10-10T08:04:50.261Z,5.40
2022-10-10T08:06:52.007Z,5.40
2022-10-10T08:08:53.674Z,5.50
2022-10-10T08:10:55.380Z,4.32
2022-10-10T08:12:57.348Z,4.68
2022-10-10T08:14:59.517Z,4.63
2022-10-10T08:17:01.188Z,4.32
2022-10-10T08:19:04.661Z,2.92
2022-10-10T08:24:22.566Z,4.55
2022-10-10T08:26:24.256Z,5.82
2022-10-10T08:28:26.691Z,6.25
2022-10-10T08:30:28.469Z,5.72
2022-10-10T08:32:30.180Z,5.13
2022-10-10T08:34:31.764Z,4.05
2022-10-10T08:36:33.328Z,4.13
2022-10-10T08:38:35.484Z,3.95
2022-10-10T08:40:48.715Z,3.47
2022-10-10T08:42:53.560Z,4.03
2022-10-10T08:45:02.933Z,3.45
2022-10-10T08:47:04.508Z,3.75
2022-10-10T08:49:26.057Z,4.30
2022-10-10T08:51:32.349Z,3.38
2022-10-10T08:53:47.153Z,5.18
2022-10-10T08:55:51.805Z,6.43
2022-10-10T08:58:14.991Z,4.70
2022-10-10T09:00:20.066Z,5.72
2022-10-10T09:02:53.806Z,6.35
2022-10-10T09:04:57.414Z,5.93
2022-10-10T09:07:11.821Z,5.13
2022-10-10T09:09:49.613Z,5.13
2022-10-10T09:12:03.927Z,5.05
2022-10-10T09:14:33.772Z,4.53
2022-10-10T09:16:46.563Z,4.95
2022-10-10T09:19:00.163Z,4.15
2022-10-10T09:21:22.990Z,4.57
2022-10-10T09:23:32.500Z,4.55
2022-10-10T09:25:40.374Z,4.93
2022-10-10T09:27:55.472Z,3.67
2022-10-10T09:30:19.894Z,4.05
2022-10-10T09:32:25.981Z,4.07
2022-10-10T09:35:05.617Z,3.78
2022-10-10T09:37:29.539Z,4.07
2022-10-10T09:39:49.408Z,4.32
2022-10-10T09:42:00.936Z,4.00
2022-10-10T09:44:07.991Z,3.50
2022-10-10T09:46:09.842Z,4.07
2022-10-10T09:48:11.740Z,3.80
2022-10-10T09:50:15.134Z,3.58
2022-10-10T09:52:27.286Z,3.25
2022-10-10T09:54:29.002Z,2.92
2022-10-10T09:56:41.334Z,4.10
2022-10-10T09:58:45.649Z,3.45
2022-10-10T10:00:47.535Z,3.33
2022-10-10T10:02:50.841Z,3.15
2022-10-10T10:04:53.930Z,4.50
2022-10-10T10:07:23.935Z,3.10
2022-10-10T10:09:25.576Z,4.35
2022-10-10T10:11:36.565Z,3.47
2022-10-10T10:13:38.279Z,3.75
2022-10-10T10:15:39.944Z,3.13
2022-10-10T10:17:41.719Z,3.00
2022-10-10T10:19:46.139Z,2.85
2022-10-10T10:21:51.877Z,2.92
2022-10-10T10:23:58.852Z,3.22
2022-10-10T10:26:06.594Z,3.72
2022-10-10T10:28:11.378Z,3.95
2022-10-10T10:30:25.525Z,2.92
2022-10-10T10:32:47.439Z,3.00
2022-10-10T10:35:26.057Z,3.53
2022-10-10T10:37:58.950Z,2.42
2022-10-10T10:40:14.955Z,2.38
2022-10-10T10:42:38.608Z,2.35
2022-10-10T10:44:46.304Z,3.42
2022-10-10T10:47:26.542Z,2.95
2022-10-10T10:50:04.664Z,2.17
2022-10-10T10:52:09.099Z,2.42
2022-10-10T10:54:38.129Z,3.05
2022-10-10T10:56:58.810Z,2.53
2022-10-10T11:01:58.131Z,1.98
2022-10-10T11:05:20.137Z,2.70
2022-10-10T11:07:20.731Z,2.53
2022-10-10T11:12:11.455Z,2.35
2022-10-10T11:14:52.476Z,2.45
2022-10-10T11:16:59.869Z,2.13
2022-10-10T11:19:05.743Z,1.90
2022-10-10T11:21:14.115Z,2.15
2022-10-10T11:23:23.264Z,2.40
2022-10-10T11:25:38.178Z,3.35
2022-10-10T11:27:54.058Z,2.13
2022-10-10T11:30:16.134Z,2.50
2022-10-10T11:32:22.320Z,2.70
2022-10-10T11:34:36.148Z,2.28
2022-10-10T11:36:41.152Z,2.55
2022-10-10T11:38:54.533Z,2.65
2022-10-10T11:41:20.603Z,3.38
2022-10-10T11:43:34.419Z,2.08
2022-10-10T11:45:53.650Z,2.78
2022-10-10T11:48:05.010Z,2.47
2022-10-10T11:50:30.319Z,1.98
2022-10-10T11:52:53.394Z,2.65
2022-10-10T11:55:16.773Z,2.35
2022-10-10T11:57:23.704Z,2.88
2022-10-10T11:59:32.484Z,2.20
2022-10-10T12:01:38.195Z,1.50
2022-10-10T12:03:40.027Z,2.28
2022-10-10T12:05:49.179Z,2.08
2022-10-10T12:08:17.660Z,1.83
2022-10-10T12:10:26.762Z,2.08
2022-10-10T12:12:33.060Z,2.53
2022-10-10T12:14:39.198Z,2.45
2022-10-10T12:16:40.850Z,2.40
2022-10-10T12:18:47.451Z,2.03
2022-10-10T12:20:49.107Z,1.90
2022-10-10T12:23:13.860Z,1.75
2022-10-10T12:25:46.139Z,2.47
2022-10-10T12:28:27.495Z,1.63
2022-10-10T12:30:29.321Z,1.90
2022-10-10T12:32:38.647Z,2.33
2022-10-10T12:34:48.714Z,2.28
2022-10-10T12:37:12.384Z,2.72
2022-10-10T12:39:14.026Z,2.10
2022-10-10T12:41:16.405Z,2.05
2022-10-10T12:43:24.080Z,1.63
2022-10-10T12:45:28.699Z,1.88
2022-10-10T12:48:03.834Z,1.85
2022-10-10T12:50:06.953Z,1.63
2022-10-10T12:52:13.663Z,2.20
2022-10-10T12:54:42.238Z,1.80
2022-10-10T12:56:44.802Z,1.83
2022-10-10T12:58:47.943Z,1.98
2022-10-10T13:00:50.473Z,2.03
2022-10-10T13:02:55.650Z,1.88
2022-10-10T13:04:59.561Z,1.52
2022-10-10T13:07:02.279Z,2.17
2022-10-10T13:09:40.299Z,1.70
2022-10-10T13:11:56.703Z,2.67
2022-10-10T13:13:58.601Z,2.00
2022-10-10T13:16:15.532Z,1.80
2022-10-10T13:18:36.499Z,2.17
2022-10-10T13:20:40.377Z,2.00
2022-10-10T13:22:47.022Z,2.17
2022-10-10T13:24:49.854Z,2.47
2022-10-10T13:26:52.796Z,1.77
2022-10-10T13:28:57.254Z,1.80
2022-10-10T13:30:59.201Z,2.35
2022-10-10T13:33:01.087Z,3.20
2022-10-10T13:35:12.351Z,1.60
2022-10-10T13:37:16.730Z,2.30
2022-10-10T13:39:19.076Z,2.25
2022-10-10T13:41:21.230Z,3.03
2022-10-10T13:43:22.932Z,1.90
2022-10-10T13:45:30.933Z,2.42
2022-10-10T13:48:01.077Z,2.05
2022-10-10T13:50:03.725Z,2.45
2022-10-10T13:52:22.749Z,2.35
2022-10-10T13:54:43.235Z,2.13
2022-10-10T13:56:44.850Z,2.15
2022-10-10T13:58:59.155Z,2.03
2022-10-10T14:01:02.663Z,2.13
2022-10-10T14:03:16.742Z,3.60
2022-10-10T14:05:28.303Z,2.17
2022-10-10T14:07:31.065Z,2.08
2022-10-10T14:09:41.644Z,3.00
2022-10-10T14:11:43.801Z,1.52
2022-10-10T14:13:50.750Z,2.88
2022-10-10T14:15:52.996Z,2.40
2022-10-10T14:17:54.651Z,2.35
2022-10-10T14:19:56.787Z,4.97
2022-10-10T14:21:58.519Z,5.28
2022-10-10T14:24:00.363Z,5.65
2022-10-10T14:26:02.252Z,7.68
2022-10-10T14:28:03.906Z,3.83
2022-10-10T14:30:06.548Z,2.47
2022-10-10T14:32:10.855Z,3.88
2022-10-10T14:34:14.386Z,4.50
2022-10-10T14:36:15.989Z,3.60
2022-10-10T14:38:18.175Z,3.90
2022-10-10T14:40:22.016Z,3.58
2022-10-10T14:42:25.403Z,3.28
2022-10-10T14:44:27.033Z,3.33
2022-10-10T14:46:28.772Z,3.15
2022-10-10T14:48:30.537Z,3.40
2022-10-10T14:50:34.941Z,3.58
2022-10-10T14:52:36.583Z,2.85
2022-10-10T14:54:38.877Z,3.97
2022-10-10T14:57:06.554Z,3.42
2022-10-10T14:59:03.842Z,3.65
2022-10-10T15:01:06.353Z,3.72
2022-10-10T15:03:08.340Z,3.55
2022-10-10T15:05:10.194Z,2.80
2022-10-10T15:07:14.321Z,3.72
2022-10-10T15:09:40.078Z,3.28
2022-10-10T15:11:38.594Z,2.47
2022-10-10T15:13:41.641Z,2.85
2022-10-10T15:15:43.350Z,2.20
2022-10-10T15:17:45.283Z,2.42
2022-10-10T15:19:46.982Z,2.55
2022-10-10T15:21:48.605Z,3.10
2022-10-10T15:23:50.285Z,1.83
2022-10-10T15:25:51.904Z,2.75
2022-10-10T15:27:53.561Z,3.15
2022-10-10T15:29:55.452Z,2.50
2022-10-10T15:31:57.106Z,2.88
2022-10-10T15:33:59.457Z,3.67
2022-10-10T15:36:09.472Z,2.08
2022-10-10T15:38:11.455Z,3.30
2022-10-10T15:40:15.935Z,2.58
2022-10-10T15:42:22.432Z,3.03
2022-10-10T15:44:24.539Z,2.67
2022-10-10T15:46:27.902Z,3.38
2022-10-10T15:48:31.123Z,2.15
2022-10-10T15:50:36.073Z,4.30
2022-10-10T15:52:40.543Z,3.17
2022-10-10T15:54:42.166Z,3.22
2022-10-10T15:56:43.818Z,3.83
2022-10-10T15:58:45.524Z,4.07
2022-10-10T16:00:47.246Z,5.45
2022-10-10T16:02:48.979Z,5.28
2022-10-10T16:04:50.701Z,5.18
2022-10-10T16:07:19.948Z,5.63
2022-10-10T16:09:28.211Z,4.30
2022-10-10T16:11:30.664Z,5.18
2022-10-10T16:13:33.480Z,5.80
2022-10-10T16:15:35.838Z,4.80
2022-10-10T16:17:37.540Z,4.60
2022-10-10T16:19:39.237Z,6.05
2022-10-10T16:21:40.901Z,5.03
2022-10-10T16:23:42.502Z,6.65
2022-10-10T16:25:44.324Z,5.38
2022-10-10T16:27:46.026Z,5.18
2022-10-10T16:29:47.632Z,3.85
2022-10-10T16:31:49.307Z,3.80
2022-10-10T16:33:51.198Z,4.63
2022-10-10T16:35:52.843Z,3.63
2022-10-10T16:37:54.669Z,4.72
2022-10-10T16:39:56.376Z,4.70
2022-10-10T16:41:58.030Z,4.10
2022-10-10T16:44:00.023Z,4.18
2022-10-10T16:46:02.833Z,3.88
2022-10-10T16:48:04.599Z,4.53
2022-10-10T16:50:06.704Z,4.80
2022-10-10T16:52:08.371Z,5.60
2022-10-10T16:54:09.973Z,4.57
2022-10-10T16:56:14.436Z,5.18
2022-10-10T16:58:16.073Z,4.70
2022-10-10T17:00:17.928Z,7.10
2022-10-10T17:02:19.716Z,4.40
2022-10-10T17:04:21.869Z,4.95
2022-10-10T17:06:23.713Z,4.75
2022-10-10T17:08:25.311Z,4.97
2022-10-10T17:10:27.356Z,4.60
2022-10-10T17:12:29.016Z,4.82
2022-10-10T17:14:30.734Z,3.95
2022-10-10T17:18:54.466Z,4.07
2022-10-10T17:20:56.101Z,3.70
2022-10-10T17:22:57.770Z,4.43
2022-10-10T17:24:59.415Z,4.97
2022-10-10T17:27:01.109Z,5.10
2022-10-10T17:29:03.105Z,4.05
2022-10-10T17:31:09.837Z,4.93
2022-10-10T17:33:12.840Z,4.65
2022-10-10T17:35:14.462Z,5.20
2022-10-10T17:37:16.301Z,5.55
2022-10-10T17:39:17.895Z,5.50
2022-10-10T17:41:20.644Z,5.53
2022-10-10T17:43:23.709Z,4.72
2022-10-10T17:45:25.287Z,4.72
2022-10-10T17:47:27.717Z,5.00
2022-10-10T17:49:29.337Z,3.67
2022-10-10T17:51:31.003Z,4.75
2022-10-10T17:53:32.828Z,3.83
2022-10-10T17:55:34.469Z,3.92
2022-10-10T17:57:36.193Z,4.10
2022-10-10T17:59:38.377Z,4.80
2022-10-10T18:01:41.380Z,3.97
2022-10-10T18:03:43.168Z,3.78
2022-10-10T18:05:44.842Z,3.45
2022-10-10T18:07:46.628Z,3.13
2022-10-10T18:09:51.726Z,3.83
2022-10-10T18:11:53.450Z,3.20
2022-10-10T18:14:00.492Z,3.97
2022-10-10T18:16:10.715Z,4.43
2022-10-10T18:18:12.436Z,4.70
2022-10-10T18:20:14.271Z,4.70
2022-10-10T18:22:16.779Z,3.75
2022-10-10T18:24:18.726Z,4.68
2022-10-10T18:26:22.733Z,4.28
2022-10-10T18:28:24.529Z,5.20
2022-10-10T18:30:26.641Z,4.90
2022-10-10T18:32:28.449Z,4.45
2022-10-10T18:34:30.369Z,4.15
2022-10-10T18:36:35.334Z,6.93
2022-10-10T18:38:37.934Z,8.20
2022-10-10T18:40:39.650Z,8.45
2022-10-10T18:42:41.809Z,7.78
2022-10-10T18:44:43.589Z,8.43
2022-10-10T18:46:46.405Z,7.68
2022-10-10T18:48:52.975Z,6.97
2022-10-10T18:51:16.845Z,6.70
2022-10-10T18:53:18.509Z,6.40
2022-10-10T18:55:20.449Z,6.18
2022-10-10T18:57:22.118Z,6.40
2022-10-10T18:59:23.864Z,7.03
2022-10-10T19:01:26.636Z,7.25
2022-10-10T19:03:28.556Z,7.20
2022-10-10T19:05:30.334Z,7.85
2022-10-10T19:07:32.024Z,6.15
2022-10-10T19:09:34.369Z,7.18
2022-10-10T19:11:39.447Z,6.72
2022-10-10T19:13:41.131Z,5.03
2022-10-10T19:15:42.892Z,5.80
2022-10-10T19:17:44.562Z,5.63
2022-10-10T19:19:47.970Z,7.53
2022-10-10T19:21:50.454Z,6.95
2022-10-10T19:23:52.141Z,5.80
2022-10-10T19:25:53.984Z,6.03
2022-10-10T19:27:56.595Z,5.93
2022-10-10T19:29:59.156Z,6.05
2022-10-10T19:32:00.989Z,6.63
2022-10-10T19:34:02.913Z,7.18
2022-10-10T19:36:06.869Z,6.60
2022-10-10T19:38:10.440Z,5.80
2022-10-10T19:40:12.246Z,5.40
2022-10-10T19:42:14.334Z,6.40
2022-10-10T19:44:16.042Z,6.20
2022-10-10T19:46:19.569Z,5.13
2022-10-10T19:48:23.456Z,5.07
2022-10-10T19:50:25.076Z,4.93
2022-10-10T19:52:26.810Z,5.65
2022-10-10T19:54:28.637Z,4.35
2022-10-10T19:56:30.389Z,4.68
2022-10-10T19:58:32.453Z,4.55
2022-10-10T20:00:34.206Z,4.85
2022-10-10T20:02:35.961Z,5.22
2022-10-10T20:04:37.649Z,5.53
2022-10-10T20:06:41.362Z,5.03
2022-10-10T20:08:43.195Z,4.97
2022-10-10T20:10:46.393Z,7.15
2022-10-10T20:12:49.009Z,4.95
2022-10-10T20:14:50.633Z,6.28
2022-10-10T20:16:52.679Z,4.93
2022-10-10T20:18:56.168Z,4.72
2022-10-10T20:20:57.778Z,4.85
2022-10-10T20:23:00.759Z,4.45
2022-10-10T20:25:02.626Z,4.72
2022-10-10T20:27:04.394Z,5.15
2022-10-10T20:29:07.211Z,4.95
2022-10-10T20:31:20.051Z,5.20
2022-10-10T20:33:21.964Z,4.25
2022-10-10T20:35:23.584Z,4.75
2022-10-10T20:37:25.236Z,6.28
2022-10-10T20:39:26.961Z,4.20
2022-10-10T20:41:32.482Z,5.60
2022-10-10T20:43:35.121Z,5.18
2022-10-10T20:45:38.016Z,4.72
2022-10-10T20:47:39.693Z,4.07
2022-10-10T20:49:41.299Z,3.92
2022-10-10T20:51:48.279Z,3.45
2022-10-10T20:53:57.029Z,3.13
2022-10-10T20:56:03.383Z,3.13
2022-10-10T20:58:05.276Z,2.88
2022-10-10T21:00:07.851Z,2.55
2022-10-10T21:02:11.019Z,2.92
2022-10-10T21:04:14.222Z,3.00
2022-10-10T21:06:20.840Z,2.90
2022-10-10T21:08:22.600Z,2.50
2022-10-10T21:10:24.229Z,3.33
2022-10-10T21:12:25.888Z,2.65
2022-10-10T21:14:27.656Z,2.97
2022-10-10T21:16:31.730Z,2.70
2022-10-10T21:18:33.477Z,3.95
2022-10-10T21:20:35.112Z,2.60
2022-10-10T21:22:36.803Z,2.90
2022-10-10T21:24:38.581Z,2.78
2022-10-10T21:26:43.762Z,2.72
2022-10-10T21:28:46.023Z,5.32
2022-10-10T21:30:49.966Z,7.57
2022-10-10T21:32:51.579Z,9.25
2022-10-10T21:34:56.464Z,7.13
2022-10-10T21:36:58.297Z,7.25
2022-10-10T21:39:01.299Z,8.55
2022-10-10T21:41:08.106Z,7.85
2022-10-10T21:43:10.180Z,6.93
2022-10-10T21:45:11.854Z,6.90
2022-10-10T21:47:13.561Z,5.90
2022-10-10T21:49:15.291Z,5.05
2022-10-10T21:51:17.014Z,6.43
2022-10-10T21:53:18.673Z,6.60
2022-10-10T21:55:20.659Z,5.57
2022-10-10T21:57:22.303Z,5.65
2022-10-10T21:59:26.421Z,6.13
2022-10-10T22:01:32.855Z,4.60
2022-10-10T22:03:34.784Z,4.53
2022-10-10T22:05:36.788Z,4.22
2022-10-10T22:07:40.382Z,4.57
2022-10-10T22:09:42.175Z,4.25
2022-10-10T22:11:43.841Z,3.85
2022-10-10T22:13:46.165Z,3.03
2022-10-10T22:15:48.678Z,3.40
2022-10-10T22:17:50.469Z,2.53
2022-10-10T22:19:52.122Z,2.72
2022-10-10T22:21:53.751Z,2.70
2022-10-10T22:23:55.524Z,2.90
2022-10-10T22:25:57.147Z,2.75
2022-10-10T22:28:05.216Z,3.17
2022-10-10T22:30:12.524Z,2.83
2022-10-10T22:32:14.244Z,4.40
2022-10-10T22:34:15.896Z,3.53
2022-10-10T22:36:17.760Z,3.15
2022-10-10T22:38:19.632Z,3.35
2022-10-10T22:40:23.225Z,3.30
2022-10-10T22:42:24.875Z,2.97
2022-10-10T22:44:26.504Z,3.20
2022-10-10T22:46:28.186Z,2.97
2022-10-10T22:48:30.237Z,3.10
2022-10-10T22:50:32.110Z,2.97
2022-10-10T22:52:33.923Z,2.83
2022-10-10T22:54:35.888Z,3.50
2022-10-10T22:56:37.674Z,2.80
2022-10-10T22:58:39.273Z,2.58
2022-10-10T23:00:41.102Z,2.38
2022-10-10T23:02:45.903Z,2.85
2022-10-10T23:04:47.519Z,2.83
2022-10-10T23:06:50.652Z,2.97
2022-10-10T23:08:52.894Z,3.13
2022-10-10T23:10:54.564Z,3.22
2022-10-10T23:12:56.241Z,2.83
2022-10-10T23:14:57.907Z,3.03
2022-10-10T23:16:59.583Z,3.80
2022-10-10T23:19:01.200Z,2.95
2022-10-10T23:21:02.930Z,2.97
2022-10-10T23:23:04.701Z,3.28
2022-10-10T23:25:06.784Z,3.08
2022-10-10T23:27:08.452Z,3.42
2022-10-10T23:29:10.163Z,2.70
2022-10-10T23:31:12.227Z,3.15
2022-10-10T23:33:14.196Z,2.78
2022-10-10T23:35:16.002Z,3.00
2022-10-10T23:37:17.643Z,2.60
2022-10-10T23:39:19.308Z,2.97
2022-10-10T23:41:21.003Z,3.10
2022-10-10T23:43:23.738Z,2.67
2022-10-10T23:45:25.758Z,2.92
2022-10-10T23:47:27.558Z,2.95
2022-10-10T23:49:29.188Z,2.55
2022-10-10T23:51:30.833Z,2.75
2022-10-10T23:53:33.109Z,2.78
2022-10-10T23:55:35.445Z,2.63
2022-10-10T23:57:37.175Z,2.65
2022-10-10T23:59:38.904Z,2.78
